Time;durP1;ratioP1;P1;durP2;ratioP2;P2;SDS_P1;SDS_P2;PMS_P1;PMS_P2;Temp;Humidity;BMP_temperature;BMP_pressure;BME280_temperature;BME280_humidity;BME280_pressure;Samples;Min_cycle;Max_cycle;Signal;HPM_P1;HPM_P2
2021/12/18 00:00:40;;;;;;;9.55;6.42;;;;;;;2.74;79.52;100620.50;1757859;81;20964;-76
2021/12/18 00:03:07;;;;;;;10.53;7.58;;;;;;;2.69;79.68;100616.71;1758268;80;21419;-75
2021/12/18 00:05:35;;;;;;;12.00;8.50;;;;;;;2.69;79.81;100623.19;1757744;80;20868;-76
2021/12/18 00:08:02;;;;;;;9.55;6.97;;;;;;;2.68;79.87;100622.34;1758228;81;20884;-76
2021/12/18 00:10:29;;;;;;;9.90;7.60;;;;;;;2.67;80.04;100619.37;1757810;81;21513;-75
2021/12/18 00:12:56;;;;;;;11.00;7.92;;;;;;;2.67;80.06;100623.70;1758086;80;20865;-74
2021/12/18 00:15:24;;;;;;;10.03;7.10;;;;;;;2.64;80.04;100627.20;1758501;81;20932;-75
2021/12/18 00:17:51;;;;;;;11.28;7.12;;;;;;;2.62;80.08;100625.12;1758348;81;20920;-74
2021/12/18 00:20:18;;;;;;;12.90;8.33;;;;;;;2.61;80.12;100629.88;1757920;81;20880;-73
2021/12/18 00:22:46;;;;;;;11.93;9.05;;;;;;;2.61;80.12;100634.22;1757827;81;22004;-74
2021/12/18 00:25:12;;;;;;;12.18;7.47;;;;;;;2.59;80.28;100632.95;1757769;81;20971;-76
2021/12/18 00:27:39;;;;;;;11.78;7.08;;;;;;;2.59;80.40;100632.95;1757900;80;21011;-74
2021/12/18 00:30:08;;;;;;;8.35;7.17;;;;;;;2.60;80.64;100623.02;1757850;81;21478;-75
2021/12/18 00:32:34;;;;;;;10.28;7.85;;;;;;;2.68;80.82;100637.88;1758201;81;20916;-75
2021/12/18 00:35:01;;;;;;;12.60;8.93;;;;;;;2.73;80.80;100636.45;1758065;80;21793;-75
2021/12/18 00:37:28;;;;;;;9.13;7.58;;;;;;;2.77;80.67;100630.31;1757900;81;20869;-74
2021/12/18 00:39:58;;;;;;;9.73;8.45;;;;;;;2.79;80.50;100631.57;1758020;80;20928;-76
2021/12/18 00:42:46;;;;;;;12.58;6.80;;;;;;;2.80;80.39;100635.42;1757916;81;20889;-74
2021/12/18 00:45:14;;;;;;;12.75;7.90;;;;;;;2.80;80.14;100636.72;1757508;81;20888;-74
2021/12/18 00:47:43;;;;;;;11.00;7.03;;;;;;;2.76;80.09;100636.81;1744912;81;20999;-74
2021/12/18 00:50:15;;;;;;;13.20;8.28;;;;;;;2.73;80.23;100640.80;1744338;81;21472;-73
2021/12/18 00:52:42;;;;;;;14.85;9.23;;;;;;;2.70;80.20;100645.16;1743985;81;21367;-73
2021/12/18 00:55:09;;;;;;;12.75;8.58;;;;;;;2.67;80.38;100649.14;1744889;81;20932;-74
2021/12/18 00:57:37;;;;;;;10.08;7.95;;;;;;;2.66;80.48;100646.13;1744681;82;20861;-74
2021/12/18 01:00:09;;;;;;;11.90;8.28;;;;;;;2.66;80.57;100649.17;1744575;81;21142;-75
2021/12/18 01:02:40;;;;;;;12.23;8.40;;;;;;;2.67;80.58;100645.26;1744975;81;20916;-75
2021/12/18 01:05:07;;;;;;;12.23;7.80;;;;;;;2.69;80.82;100649.08;1744600;80;20873;-75
2021/12/18 01:07:35;;;;;;;13.60;10.10;;;;;;;2.68;80.58;100651.28;1744648;81;20909;-75
2021/12/18 01:10:15;;;;;;;13.60;9.35;;;;;;;2.63;80.76;100650.56;1744614;82;20929;-76
2021/12/18 01:12:42;;;;;;;12.95;8.53;;;;;;;2.59;80.79;100643.77;1743836;81;20961;-75
2021/12/18 01:22:48;;;;;;;;;;;;;;;2.45;81.13;100648.86;1747536;81;20861;-76
2021/12/18 01:25:18;;;;;;;12.55;8.38;;;;;;;2.42;81.20;100648.95;1744678;80;21493;-76
2021/12/18 01:27:46;;;;;;;13.05;7.55;;;;;;;2.37;81.32;100639.14;1744991;82;20924;-76
2021/12/18 01:30:13;;;;;;;10.45;7.53;;;;;;;2.36;81.42;100649.09;1744621;82;20979;-76
2021/12/18 01:32:41;;;;;;;12.63;8.58;;;;;;;2.34;81.44;100644.86;1744788;82;20988;-75
2021/12/18 01:35:08;;;;;;;9.80;6.90;;;;;;;2.32;81.46;100655.23;1744626;82;20881;-76
2021/12/18 01:37:36;;;;;;;13.10;8.00;;;;;;;2.34;81.54;100660.38;1744714;81;21147;-75
2021/12/18 01:40:05;;;;;;;10.60;7.53;;;;;;;2.37;81.60;100661.14;1744612;81;20936;-74
2021/12/18 01:53:13;;;;;;;10.68;8.48;;;;;;;2.34;81.07;100663.81;1757843;81;20093;-75
2021/12/18 01:55:44;;;;;;;10.48;7.70;;;;;;;2.30;81.01;100672.53;1757876;80;20979;-73
2021/12/18 01:58:10;;;;;;;10.93;7.60;;;;;;;2.23;80.99;100678.30;1758278;81;21091;-74
2021/12/18 02:00:42;;;;;;;9.15;7.50;;;;;;;2.20;81.06;100671.92;1758022;81;21349;-75
2021/12/18 02:03:09;;;;;;;10.25;8.60;;;;;;;2.18;80.98;100675.41;1758173;81;21119;-74
2021/12/18 02:05:41;;;;;;;8.70;7.12;;;;;;;2.18;81.07;100675.41;1757830;81;21440;-74
2021/12/18 02:08:06;;;;;;;10.15;7.10;;;;;;;2.18;80.94;100677.58;1757300;80;21341;-75
2021/12/18 02:10:43;;;;;;;14.10;7.83;;;;;;;2.14;80.92;100678.98;1757869;81;20983;-77
2021/12/18 02:13:21;;;;;;;8.88;6.95;;;;;;;2.10;80.86;100679.49;1757064;81;20995;-76
2021/12/18 02:21:10;;;;;;;12.28;7.42;;;;;;;1.97;80.88;100687.14;1757936;81;20936;-77
2021/12/18 02:23:35;;;;;;;11.85;8.38;;;;;;;1.91;80.93;100686.82;1757857;81;20928;-76
2021/12/18 02:26:01;;;;;;;9.28;6.62;;;;;;;1.87;80.99;100694.27;1740991;81;20956;-75
2021/12/18 02:28:28;;;;;;;11.60;7.12;;;;;;;1.84;81.06;100702.92;1758227;81;22177;-74
2021/12/18 02:30:56;;;;;;;14.30;8.23;;;;;;;1.82;81.17;100698.25;1757876;80;20916;-74
2021/12/18 02:33:24;;;;;;;10.20;7.37;;;;;;;1.82;81.25;100700.84;1758073;81;20896;-75
2021/12/18 02:35:53;;;;;;;11.00;7.90;;;;;;;1.84;81.30;100700.78;1757848;81;21015;-74
2021/12/18 02:38:44;;;;;;;13.03;7.42;;;;;;;1.86;81.34;100701.60;1758400;81;20967;-74
2021/12/18 02:41:27;;;;;;;9.38;7.28;;;;;;;1.88;81.32;100705.45;1756146;80;21212;-75
2021/12/18 02:43:44;;;;;;;11.45;8.28;;;;;;;1.89;81.29;100706.72;1756824;81;20924;-75
2021/12/18 02:46:17;;;;;;;13.15;9.18;;;;;;;1.91;81.21;100710.09;1756789;81;20995;-75
2021/12/18 02:48:40;;;;;;;11.33;8.35;;;;;;;1.89;80.95;100709.72;1744244;81;21012;-75
2021/12/18 02:51:09;;;;;;;12.80;8.70;;;;;;;1.84;81.01;100710.67;1744581;81;20881;-74
2021/12/18 02:53:38;;;;;;;15.85;9.48;;;;;;;1.83;81.00;100706.85;1744790;80;21174;-75
2021/12/18 02:56:06;;;;;;;13.08;8.08;;;;;;;1.81;81.01;100712.05;1744474;81;20889;-76
2021/12/18 02:58:40;;;;;;;15.58;9.55;;;;;;;1.78;80.92;100703.08;1744785;80;21437;-75
2021/12/18 03:01:08;;;;;;;;;;;;;;;1.77;81.11;100708.28;1746558;80;20929;-77
2021/12/18 03:03:38;;;;;;;15.85;9.85;;;;;;;1.77;81.08;100709.56;1744813;82;20105;-75
2021/12/18 03:08:49;;;;;;;13.93;7.85;;;;;;;1.77;81.22;100714.73;1744737;82;20885;-75
2021/12/18 03:24:56;;;;;;;;;;;;;;;1.73;80.89;100742.83;1747472;82;20897;-77
2021/12/18 03:27:12;;;;;;;11.38;8.18;;;;;;;1.69;80.83;100738.60;1743489;81;20121;-76
2021/12/18 03:29:39;;;;;;;8.53;5.92;;;;;;;1.64;80.80;100742.13;1744745;80;20834;-75
2021/12/18 03:32:06;;;;;;;9.30;7.15;;;;;;;1.59;80.87;100740.09;1744715;81;21131;-78
2021/12/18 03:34:33;;;;;;;9.80;6.33;;;;;;;1.56;81.08;100737.59;1744376;81;20964;-77
2021/12/18 03:37:02;;;;;;;10.03;6.72;;;;;;;1.56;81.12;100745.34;1744610;81;20933;-76
2021/12/18 03:39:28;;;;;;;10.08;7.12;;;;;;;1.58;81.31;100749.16;1744664;81;20905;-74
2021/12/18 03:41:55;;;;;;;10.82;7.53;;;;;;;1.62;81.30;100750.39;1744672;81;20920;-74
2021/12/18 03:44:22;;;;;;;11.33;6.50;;;;;;;1.65;81.14;100751.61;1744778;82;21502;-76
2021/12/18 03:46:49;;;;;;;9.40;6.97;;;;;;;1.68;81.04;100751.13;1747577;81;20987;-77
2021/12/18 03:49:16;;;;;;;10.03;6.83;;;;;;;1.70;80.90;100751.95;1757981;81;20885;-74
2021/12/18 03:51:43;;;;;;;9.75;7.53;;;;;;;1.70;80.58;100753.25;1757863;80;21417;-74
2021/12/18 03:54:10;;;;;;;10.48;7.25;;;;;;;1.68;80.50;100756.30;1757952;81;21014;-75
2021/12/18 03:56:37;;;;;;;10.25;6.35;;;;;;;1.68;80.34;100758.44;1757891;80;21058;-75
2021/12/18 03:59:04;;;;;;;13.13;7.47;;;;;;;1.64;80.23;100756.34;1757997;81;20960;-76
2021/12/18 04:01:32;;;;;;;7.55;5.62;;;;;;;1.64;80.25;100761.97;1757966;81;20889;-75
2021/12/18 04:03:59;;;;;;;9.20;5.70;;;;;;;1.65;80.15;100758.06;1757811;81;20972;-75
2021/12/18 04:06:26;;;;;;;9.50;7.00;;;;;;;1.68;80.07;100769.23;1757968;81;20924;-75
2021/12/18 04:08:55;;;;;;;6.30;4.87;;;;;;;1.70;79.92;100775.22;1757955;80;20924;-74
2021/12/18 04:11:22;;;;;;;9.40;5.03;;;;;;;1.69;79.57;100769.20;1757870;81;20901;-73
2021/12/18 04:13:49;;;;;;;10.60;6.05;;;;;;;1.68;79.53;100779.12;1758104;81;20869;-75
2021/12/18 04:16:17;;;;;;;7.28;5.03;;;;;;;1.68;79.12;100776.53;1757967;81;21417;-74
2021/12/18 04:18:44;;;;;;;8.43;5.58;;;;;;;1.65;78.87;100770.99;1757955;80;21349;-74
2021/12/18 04:21:11;;;;;;;9.70;5.33;;;;;;;1.62;78.42;100783.99;1758081;81;21153;-77
2021/12/18 04:23:38;;;;;;;7.65;5.03;;;;;;;1.59;78.31;100784.48;1740943;81;21418;-76
2021/12/18 04:26:06;;;;;;;5.80;4.75;;;;;;;1.57;78.29;100788.83;1757989;81;20864;-74
2021/12/18 04:28:34;;;;;;;6.65;4.47;;;;;;;1.56;78.16;100787.14;1757797;81;21401;-75
2021/12/18 04:31:01;;;;;;;7.12;5.60;;;;;;;1.57;78.19;100801.75;1758392;81;20999;-75
2021/12/18 04:33:27;;;;;;;7.58;4.45;;;;;;;1.58;78.09;100798.27;1757989;80;21539;-74
2021/12/18 04:35:54;;;;;;;8.55;4.65;;;;;;;1.60;77.94;100797.80;1757876;81;20892;-75
2021/12/18 04:38:21;;;;;;;11.35;5.35;;;;;;;1.60;77.23;100801.27;1758041;80;20972;-75
2021/12/18 04:40:49;;;;;;;6.15;4.10;;;;;;;1.60;77.08;100808.14;1758026;80;20966;-75
2021/12/18 04:43:16;;;;;;;6.62;4.22;;;;;;;1.59;76.71;100803.42;1758185;81;20845;-74
2021/12/18 04:45:42;;;;;;;6.87;4.70;;;;;;;1.58;76.63;100812.48;1757970;80;21472;-75
2021/12/18 04:48:11;;;;;;;5.65;4.12;;;;;;;1.57;76.79;100814.23;1757941;80;20900;-75
2021/12/18 04:50:37;;;;;;;12.03;4.97;;;;;;;1.60;76.67;100823.65;1758190;81;21441;-74
2021/12/18 04:53:06;;;;;;;6.50;3.83;;;;;;;1.61;76.71;100826.21;1758012;81;20900;-75
2021/12/18 04:55:33;;;;;;;10.78;4.83;;;;;;;1.63;76.53;100826.19;1757937;80;20948;-77
2021/12/18 04:58:00;;;;;;;8.43;5.20;;;;;;;1.68;76.53;100832.56;1757943;81;21141;-76
2021/12/18 05:00:36;;;;;;;9.18;4.55;;;;;;;1.71;76.38;100829.91;1758005;81;21475;-74
2021/12/18 05:02:56;;;;;;;6.83;4.35;;;;;;;1.74;76.32;100833.73;1756915;81;20923;-74
2021/12/18 05:05:22;;;;;;;8.38;4.97;;;;;;;1.76;76.36;100841.02;1757999;81;20943;-75
2021/12/18 05:07:50;;;;;;;8.70;5.33;;;;;;;1.77;76.50;100832.38;1757921;81;21034;-74
2021/12/18 05:10:17;;;;;;;7.20;4.92;;;;;;;1.78;76.65;100841.40;1757918;81;21212;-75
2021/12/18 05:12:45;;;;;;;9.30;5.22;;;;;;;1.79;76.77;100835.78;1758000;81;20853;-76
2021/12/18 05:15:12;;;;;;;8.25;6.00;;;;;;;1.81;76.88;100840.03;1757959;80;21499;-75
2021/12/18 05:17:38;;;;;;;9.15;5.47;;;;;;;1.82;76.98;100848.22;1757845;80;20928;-76
2021/12/18 05:20:08;;;;;;;7.50;5.30;;;;;;;1.84;76.88;100848.16;1758039;81;20864;-76
2021/12/18 05:22:37;;;;;;;10.08;5.97;;;;;;;1.85;76.86;100852.47;1757927;80;21170;-76
2021/12/18 05:25:05;;;;;;;8.03;5.22;;;;;;;1.86;76.95;100855.45;1757911;80;20885;-76
2021/12/18 05:27:33;;;;;;;10.32;6.12;;;;;;;1.86;77.02;100855.00;1757873;81;21069;-76
2021/12/18 05:30:00;;;;;;;10.50;5.78;;;;;;;1.86;77.06;100850.28;1757986;81;20983;-76
2021/12/18 05:32:27;;;;;;;13.95;6.90;;;;;;;1.84;77.21;100853.34;1758016;81;20881;-75
2021/12/18 05:34:53;;;;;;;13.68;6.28;;;;;;;1.84;77.24;100850.75;1758054;81;21139;-76
2021/12/18 05:37:32;;;;;;;11.60;6.72;;;;;;;1.87;77.28;100853.29;1757964;81;20932;-76
2021/12/18 05:39:49;;;;;;;13.62;7.25;;;;;;;1.86;77.19;100858.88;1757718;80;21345;-78
2021/12/18 05:42:16;;;;;;;11.48;7.72;;;;;;;1.88;77.03;100872.23;1757996;81;20860;-78
2021/12/18 05:44:44;;;;;;;10.05;5.92;;;;;;;1.88;77.04;100873.53;1757989;81;20907;-77
2021/12/18 05:47:11;;;;;;;10.80;5.33;;;;;;;1.88;77.05;100878.25;1756418;81;21526;-77
2021/12/18 05:49:39;;;;;;;10.05;7.28;;;;;;;1.89;77.15;100882.56;1736450;82;20845;-75
2021/12/18 05:52:06;;;;;;;14.20;7.10;;;;;;;1.90;77.09;100885.99;1736147;82;20893;-76
2021/12/18 05:54:35;;;;;;;12.00;7.35;;;;;;;1.92;77.15;100886.81;1736165;82;21518;-75
2021/12/18 05:57:06;;;;;;;14.20;6.85;;;;;;;1.94;77.19;100887.64;1736163;82;20850;-75
2021/12/18 05:59:34;;;;;;;12.13;7.28;;;;;;;1.95;77.31;100892.76;1735834;82;21136;-75
2021/12/18 06:02:02;;;;;;;12.03;7.47;;;;;;;1.94;77.31;100889.78;1736011;82;20928;-76
2021/12/18 06:04:29;;;;;;;15.40;8.78;;;;;;;1.93;77.18;100892.38;1736105;81;20936;-75
2021/12/18 06:07:51;;;;;;;15.18;7.92;;;;;;;1.92;77.28;100899.75;1736132;82;20889;-75
2021/12/18 06:09:31;;;;;;;13.43;8.05;;;;;;;1.92;77.45;100896.71;1722944;82;21764;-77
2021/12/18 06:11:58;;;;;;;14.70;7.47;;;;;;;1.94;77.65;100901.86;1736148;82;21147;-75
2021/12/18 06:14:25;;;;;;;12.78;8.40;;;;;;;1.95;77.74;100901.81;1736200;82;20881;-74
2021/12/18 06:16:52;;;;;;;9.83;8.03;;;;;;;1.97;77.88;100899.20;1736201;82;22020;-75
2021/12/18 06:19:22;;;;;;;12.68;7.47;;;;;;;1.98;77.94;100900.89;1736100;82;20936;-78
2021/12/18 06:21:49;;;;;;;12.20;7.95;;;;;;;2.02;78.02;100915.05;1736195;82;20892;-75
2021/12/18 06:24:15;;;;;;;11.43;7.45;;;;;;;2.04;78.05;100916.30;1736169;82;21195;-74
2021/12/18 06:26:44;;;;;;;12.78;8.88;;;;;;;2.05;77.99;100921.45;1736095;81;20929;-76
2021/12/18 06:29:11;;;;;;;14.50;7.42;;;;;;;2.07;77.94;100922.72;1736038;82;20968;-77
2021/12/18 06:31:39;;;;;;;9.95;6.75;;;;;;;2.08;77.75;100934.31;1736053;81;21000;-77
2021/12/18 06:34:06;;;;;;;11.53;8.20;;;;;;;2.07;77.69;100932.62;1736474;81;20896;-77
2021/12/18 06:36:33;;;;;;;9.25;6.75;;;;;;;2.06;77.70;100931.34;1736202;82;22156;-78
2021/12/18 06:39:00;;;;;;;10.85;7.15;;;;;;;2.06;77.70;100937.81;1736035;82;21067;-78
2021/12/18 06:41:27;;;;;;;11.95;7.97;;;;;;;2.06;77.78;100939.95;1736179;81;20932;-77
2021/12/18 06:43:54;;;;;;;11.12;7.10;;;;;;;2.08;77.77;100938.64;1736305;82;20882;-75
2021/12/18 06:46:21;;;;;;;12.30;6.97;;;;;;;2.11;77.73;100948.06;1736123;82;20905;-75
2021/12/18 06:48:47;;;;;;;12.05;7.08;;;;;;;2.11;77.61;100945.48;1744376;80;22091;-76
2021/12/18 06:51:19;;;;;;;15.60;8.58;;;;;;;2.11;77.50;100952.80;1750003;82;20927;-77
2021/12/18 06:53:46;;;;;;;13.25;7.90;;;;;;;2.10;77.40;100958.86;1750230;82;21038;-75
2021/12/18 06:56:13;;;;;;;13.72;7.67;;;;;;;2.08;77.42;100957.59;1750055;80;20964;-75
2021/12/18 06:58:40;;;;;;;12.78;7.53;;;;;;;2.08;77.40;100958.87;1750340;82;21027;-77
2021/12/18 07:01:07;;;;;;;12.55;7.80;;;;;;;2.05;77.51;100966.72;1750231;82;21847;-77
2021/12/18 07:03:34;;;;;;;10.40;7.53;;;;;;;2.05;77.58;100955.52;1750153;82;20900;-75
2021/12/18 07:06:01;;;;;;;12.00;6.83;;;;;;;2.07;77.57;100968.83;1750356;82;21039;-77
2021/12/18 07:08:29;;;;;;;11.75;6.83;;;;;;;2.14;77.60;100963.55;1750185;82;21035;-76
2021/12/18 07:10:57;;;;;;;11.00;7.67;;;;;;;2.19;77.60;100969.48;1750101;82;20935;-76
2021/12/18 07:13:23;;;;;;;9.90;7.30;;;;;;;2.23;77.47;100971.12;1750091;82;22184;-75
2021/12/18 07:15:53;;;;;;;12.73;7.83;;;;;;;2.22;77.39;100970.28;1749945;82;20948;-77
2021/12/18 07:18:20;;;;;;;11.15;7.30;;;;;;;2.23;77.35;100972.42;1750074;82;21135;-76
2021/12/18 07:20:48;;;;;;;12.13;7.90;;;;;;;2.21;77.24;100972.89;1750171;82;20932;-75
2021/12/18 07:23:15;;;;;;;10.08;7.33;;;;;;;2.18;77.29;100969.05;1750441;82;21339;-75
2021/12/18 07:25:41;;;;;;;11.18;7.08;;;;;;;2.14;77.47;100971.31;1750279;82;21051;-76
2021/12/18 07:28:08;;;;;;;14.73;7.65;;;;;;;2.09;77.55;100980.45;1750113;82;21414;-76
2021/12/18 07:30:35;;;;;;;10.63;7.08;;;;;;;2.10;77.76;100982.14;1750347;80;20884;-77
2021/12/18 07:33:01;;;;;;;11.20;7.17;;;;;;;2.12;77.90;100976.50;1750390;81;21426;-76
2021/12/18 07:35:30;;;;;;;10.95;7.78;;;;;;;2.14;77.89;100980.36;1750165;82;21504;-77
2021/12/18 07:37:58;;;;;;;14.98;7.35;;;;;;;2.17;77.96;100982.43;1750131;80;21123;-77
2021/12/18 07:40:26;;;;;;;10.75;6.58;;;;;;;2.18;77.78;100991.91;1750106;80;20924;-77
2021/12/18 07:42:53;;;;;;;11.22;8.03;;;;;;;2.22;77.71;100993.98;1750071;82;20979;-77
2021/12/18 07:45:20;;;;;;;10.90;6.67;;;;;;;2.23;77.46;100991.38;1750329;82;21504;-77
2021/12/18 07:47:48;;;;;;;13.28;7.75;;;;;;;2.23;77.15;100997.00;1749429;81;20916;-77
2021/12/18 07:50:19;;;;;;;9.80;6.75;;;;;;;2.21;77.22;100994.88;1736091;82;21131;-77
2021/12/18 07:52:43;;;;;;;9.08;6.47;;;;;;;2.22;77.32;100999.16;1736446;82;20999;-76
2021/12/18 07:55:10;;;;;;;9.08;6.67;;;;;;;2.18;77.36;100998.80;1736127;82;20944;-77
2021/12/18 07:57:37;;;;;;;11.60;7.28;;;;;;;2.18;77.48;101000.09;1736458;81;20873;-77
2021/12/18 08:02:43;;;;;;;8.73;6.35;;;;;;;2.30;77.59;100998.58;1797768;79;22549;-77
2021/12/18 08:05:11;;;;;;;8.45;6.55;;;;;;;2.26;77.49;100999.06;1758296;80;21464;-75
2021/12/18 08:07:38;;;;;;;6.75;5.58;;;;;;;2.28;77.22;101003.77;1758327;80;21137;-75
2021/12/18 08:10:06;;;;;;;9.73;5.65;;;;;;;2.32;77.26;100996.81;1758284;81;20928;-76
2021/12/18 08:12:33;;;;;;;9.30;6.12;;;;;;;2.34;77.14;101004.11;1758266;80;20864;-76
2021/12/18 08:15:01;;;;;;;8.43;5.97;;;;;;;2.35;77.05;100995.45;1758558;80;21370;-73
2021/12/18 08:17:28;;;;;;;8.93;4.67;;;;;;;2.34;76.88;100998.93;1758275;80;20975;-72
2021/12/18 08:19:55;;;;;;;10.05;5.92;;;;;;;2.30;76.68;100999.87;1758201;80;21143;-71
2021/12/18 08:22:22;;;;;;;9.90;6.05;;;;;;;2.28;76.77;100996.01;1758306;80;21363;-72
2021/12/18 08:24:49;;;;;;;8.38;5.17;;;;;;;2.30;76.70;100992.11;1758223;81;21432;-73
2021/12/18 08:27:16;;;;;;;7.67;5.35;;;;;;;2.32;76.56;100992.93;1758156;80;20900;-71
2021/12/18 08:29:43;;;;;;;7.90;5.28;;;;;;;2.35;76.51;100990.27;1758244;80;20962;-72
2021/12/18 08:32:11;;;;;;;9.58;5.50;;;;;;;2.40;76.34;100992.77;1758389;81;20869;-71
2021/12/18 08:34:39;;;;;;;7.65;6.53;;;;;;;2.41;76.01;100989.30;1758138;81;21010;-72
2021/12/18 08:37:06;;;;;;;8.50;5.47;;;;;;;2.39;76.10;100991.07;1758256;80;21319;-73
2021/12/18 08:39:33;;;;;;;7.67;5.70;;;;;;;2.38;76.00;100996.70;1758259;80;20954;-75
2021/12/18 08:42:03;;;;;;;8.08;5.62;;;;;;;2.42;75.94;100993.58;1758293;80;21394;-72
2021/12/18 08:44:33;;;;;;;9.50;6.20;;;;;;;2.45;75.85;100988.37;1758386;80;21175;-79
2021/12/18 08:47:00;;;;;;;7.03;5.70;;;;;;;2.48;75.56;100996.91;1758184;80;20979;-74
2021/12/18 08:49:27;;;;;;;10.28;5.95;;;;;;;2.52;75.48;100989.09;1758600;80;20975;-73
2021/12/18 08:51:54;;;;;;;8.30;5.95;;;;;;;2.61;75.44;101000.55;1758201;80;21389;-75
2021/12/18 08:54:21;;;;;;;8.03;5.33;;;;;;;2.69;75.29;100989.56;1758636;80;20971;-76
2021/12/18 08:56:48;;;;;;;9.55;5.90;;;;;;;2.80;75.14;100991.92;1758289;80;21524;-79
2021/12/18 08:59:18;;;;;;;8.43;6.00;;;;;;;2.90;74.90;100990.85;1758565;80;20912;-84
2021/12/18 09:01:45;;;;;;;10.78;6.30;;;;;;;2.98;74.42;100988.95;1751625;80;21342;-86
2021/12/18 09:04:12;;;;;;;7.95;5.60;;;;;;;3.04;74.07;100986.64;1745125;80;20874;-75
2021/12/18 09:06:39;;;;;;;9.80;5.22;;;;;;;3.09;73.84;100984.38;1745293;81;20928;-73
2021/12/18 09:09:06;;;;;;;7.40;5.33;;;;;;;3.15;73.31;100993.73;1745297;81;21137;-75
2021/12/18 09:11:33;;;;;;;8.75;5.70;;;;;;;3.13;72.86;100995.95;1744837;80;21334;-77
2021/12/18 09:14:02;;;;;;;10.60;5.25;;;;;;;3.14;72.92;100994.62;1744897;81;20861;-80
2021/12/18 09:16:32;;;;;;;7.67;6.22;;;;;;;3.18;72.83;100996.69;1744672;81;21434;-82
2021/12/18 09:18:59;;;;;;;6.37;4.97;;;;;;;3.20;72.65;100991.90;1744691;80;21437;-77
2021/12/18 09:21:25;;;;;;;9.35;5.10;;;;;;;3.23;72.53;100990.97;1744962;81;21778;-79
2021/12/18 09:23:54;;;;;;;9.05;5.72;;;;;;;3.24;72.28;100986.18;1744685;81;20924;-85
2021/12/18 09:26:21;;;;;;;6.40;4.92;;;;;;;3.22;72.16;100991.39;1744339;81;20972;-78
2021/12/18 09:28:48;;;;;;;7.65;5.72;;;;;;;3.19;72.09;100996.66;1744854;82;20935;-75
2021/12/18 09:31:15;;;;;;;6.30;4.62;;;;;;;3.22;72.12;100997.02;1744639;80;20857;-75
2021/12/18 09:33:42;;;;;;;5.22;3.87;;;;;;;3.23;71.76;100997.00;1744809;80;22057;-78
2021/12/18 09:36:08;;;;;;;7.12;4.22;;;;;;;3.23;71.63;101000.05;1744849;81;20893;-78
2021/12/18 09:38:36;;;;;;;7.15;4.55;;;;;;;3.23;71.66;100996.16;1744708;81;20888;-77
2021/12/18 09:41:02;;;;;;;7.53;4.12;;;;;;;3.25;71.53;100993.08;1745038;81;20936;-81
2021/12/18 09:43:29;;;;;;;6.53;4.33;;;;;;;3.29;71.50;100995.98;1745104;81;20869;-80
2021/12/18 09:46:08;;;;;;;6.25;4.17;;;;;;;3.29;70.86;100996.86;1745148;81;21120;-77
2021/12/18 09:48:37;;;;;;;6.12;4.10;;;;;;;3.26;70.29;100997.36;1744715;81;20893;-76
2021/12/18 09:51:08;;;;;;;6.47;3.45;;;;;;;3.17;70.36;100995.00;1744696;80;21335;-79
2021/12/18 09:53:36;;;;;;;4.62;3.30;;;;;;;3.14;69.94;100988.15;1745335;81;20920;-77
2021/12/18 09:56:04;;;;;;;5.55;3.47;;;;;;;3.14;69.69;100986.01;1745725;81;21004;-77
2021/12/18 09:58:32;;;;;;;3.30;3.00;;;;;;;3.14;69.86;100992.48;1744920;81;21149;-77
2021/12/18 10:00:59;;;;;;;5.75;4.12;;;;;;;3.11;69.61;100986.91;1744674;81;20909;-79
2021/12/18 10:03:45;;;;;;;5.03;3.27;;;;;;;3.11;69.72;100986.48;1744813;81;20960;-75
2021/12/18 10:06:40;;;;;;;4.55;3.17;;;;;;;3.08;68.98;100990.88;1740850;81;21413;-77
2021/12/18 10:09:21;;;;;;;4.03;2.85;;;;;;;3.02;68.72;100984.53;1744642;81;21022;-79
2021/12/18 10:11:55;;;;;;;3.47;3.12;;;;;;;2.96;68.56;100992.02;1744655;81;21162;-78
2021/12/18 10:14:44;;;;;;;3.72;2.95;;;;;;;2.91;68.37;100982.17;1744850;81;20924;-77
2021/12/18 10:17:25;;;;;;;3.55;3.00;;;;;;;2.88;68.54;100982.26;1744475;81;20940;-78
2021/12/18 10:20:15;;;;;;;3.20;2.77;;;;;;;2.85;68.71;100987.07;1744562;81;20945;-76
2021/12/18 10:22:52;;;;;;;5.28;3.15;;;;;;;2.83;68.60;100981.52;1747521;81;20972;-75
2021/12/18 10:25:26;;;;;;;3.70;2.83;;;;;;;2.78;68.46;100983.34;1748464;78;21110;-74
2021/12/18 10:28:13;;;;;;;4.17;3.15;;;;;;;2.74;68.54;100983.02;1747306;79;20901;-76
2021/12/18 10:30:46;;;;;;;4.17;3.10;;;;;;;2.70;68.64;100992.13;1747510;78;20909;-76
2021/12/18 10:33:13;;;;;;;6.67;4.17;;;;;;;2.67;68.78;100990.91;1747372;78;20979;-77
2021/12/18 10:35:47;;;;;;;6.25;3.70;;;;;;;2.64;69.13;100989.66;1736915;78;20976;-78
2021/12/18 10:38:39;;;;;;;6.57;4.00;;;;;;;2.64;69.04;100992.25;1747788;78;21173;-78
2021/12/18 10:41:34;;;;;;;6.10;3.50;;;;;;;2.62;69.19;100989.29;1747573;78;21092;-76
2021/12/18 10:44:09;;;;;;;5.37;3.80;;;;;;;2.58;69.58;100983.77;1747573;81;20977;-77
2021/12/18 10:46:43;;;;;;;3.87;3.50;;;;;;;2.59;69.88;100987.62;1747906;78;21097;-77
2021/12/18 10:49:13;;;;;;;6.70;3.70;;;;;;;2.62;69.98;100987.58;1748303;79;20916;-76
2021/12/18 10:51:43;;;;;;;6.30;3.90;;;;;;;2.65;70.25;100981.48;1748087;78;20874;-78
2021/12/18 10:54:22;;;;;;;8.15;3.87;;;;;;;2.72;70.48;100986.08;1747352;78;21453;-76
2021/12/18 10:56:52;;;;;;;6.10;4.67;;;;;;;2.80;70.67;100986.75;1746628;81;20921;-77
2021/12/18 10:59:25;;;;;;;7.65;4.67;;;;;;;2.86;70.46;100981.44;1747318;82;20949;-77
2021/12/18 11:01:56;;;;;;;4.97;4.03;;;;;;;2.93;70.50;100986.88;1745683;81;20917;-78
2021/12/18 11:04:35;;;;;;;6.47;4.78;;;;;;;2.96;70.47;100982.07;1744960;81;21188;-78
2021/12/18 11:07:19;;;;;;;8.58;4.20;;;;;;;2.99;70.42;100988.05;1744995;81;20865;-77
2021/12/18 11:10:09;;;;;;;7.65;5.28;;;;;;;3.05;70.50;100988.37;1736645;81;20886;-79
2021/12/18 11:15:01;;;;;;;6.50;4.67;;;;;;;3.11;70.78;100983.02;1736657;81;21013;-76
2021/12/18 11:17:28;;;;;;;6.08;5.25;;;;;;;3.12;70.92;100987.33;1736458;81;21802;-78
2021/12/18 11:19:56;;;;;;;7.42;5.25;;;;;;;3.10;71.15;100980.88;1736286;81;20897;-78
2021/12/18 11:22:25;;;;;;;7.05;4.97;;;;;;;3.11;71.23;100980.42;1736459;81;20914;-77
2021/12/18 11:25:02;;;;;;;7.47;5.87;;;;;;;3.13;71.39;100988.17;1735933;81;20918;-78
2021/12/18 11:27:32;;;;;;;6.87;5.33;;;;;;;3.17;71.40;100982.87;1736364;81;20966;-77
2021/12/18 11:30:13;;;;;;;9.55;5.53;;;;;;;3.18;71.41;100987.20;1736742;81;21199;-78
2021/12/18 11:32:54;;;;;;;7.40;5.60;;;;;;;3.18;71.38;100988.48;1733586;81;20989;-78
2021/12/18 11:35:19;;;;;;;7.50;4.58;;;;;;;3.21;71.31;100994.88;1735709;81;20953;-78
2021/12/18 11:38:07;;;;;;;10.15;5.37;;;;;;;3.21;71.37;100990.16;1738252;81;20902;-78
2021/12/18 11:40:37;;;;;;;6.45;5.22;;;;;;;3.25;71.57;100989.20;1738988;81;20894;-77
2021/12/18 11:43:09;;;;;;;10.03;5.90;;;;;;;3.30;71.68;100986.04;1739180;82;21986;-77
2021/12/18 11:45:36;;;;;;;8.33;6.20;;;;;;;3.35;71.66;100983.34;1734202;81;21538;-81
2021/12/18 11:48:04;;;;;;;8.70;5.90;;;;;;;3.39;71.56;100983.67;1744983;81;20916;-78
2021/12/18 11:50:37;;;;;;;6.87;5.22;;;;;;;3.43;71.58;100982.27;1744993;81;20988;-80
2021/12/18 11:53:13;;;;;;;7.62;4.85;;;;;;;3.41;71.34;100983.20;1745262;81;20921;-81
2021/12/18 11:55:54;;;;;;;7.15;5.35;;;;;;;3.37;71.33;100985.00;1744814;80;21168;-76
2021/12/18 11:58:35;;;;;;;7.58;5.58;;;;;;;3.36;71.31;100988.91;1744510;82;21354;-78
2021/12/18 12:01:14;;;;;;;5.20;4.28;;;;;;;3.37;71.44;100990.63;1744497;82;20976;-78
2021/12/18 12:03:57;;;;;;;6.65;5.00;;;;;;;3.36;71.44;100991.50;1757189;80;21600;-79
2021/12/18 12:06:34;;;;;;;5.67;4.30;;;;;;;3.37;71.52;100991.93;1757877;81;20924;-78
2021/12/18 12:09:25;;;;;;;5.75;4.78;;;;;;;3.36;71.43;100988.91;1757930;81;20888;-78
2021/12/18 12:12:01;;;;;;;5.80;4.42;;;;;;;3.32;71.42;100985.56;1757817;80;20971;-78
2021/12/18 12:14:32;;;;;;;5.90;4.70;;;;;;;3.30;71.45;100993.81;1757930;81;21429;-78
2021/12/18 12:17:02;;;;;;;6.30;4.62;;;;;;;3.24;71.55;100989.62;1757199;81;20908;-80
2021/12/18 12:19:37;;;;;;;7.45;4.70;;;;;;;3.23;71.47;100994.41;1757952;80;20928;-80
2021/12/18 12:22:06;;;;;;;5.92;4.35;;;;;;;3.18;71.51;100988.48;1758323;81;21990;-80
2021/12/18 12:24:52;;;;;;;6.12;5.00;;;;;;;3.16;71.56;100995.45;1757907;80;21019;-78